createdAt,value
2022-10-31T00:01:25.839Z,99.90
2022-10-31T00:03:53.861Z,99.90
2022-10-31T00:06:23.733Z,99.90
2022-10-31T00:08:55.013Z,99.90
2022-10-31T00:11:23.037Z,99.90
2022-10-31T00:13:50.834Z,99.90
2022-10-31T00:16:19.817Z,99.90
2022-10-31T00:18:50.266Z,99.90
2022-10-31T00:21:18.182Z,99.90
2022-10-31T00:23:47.233Z,99.90
2022-10-31T00:26:14.990Z,99.90
2022-10-31T00:28:42.749Z,99.90
2022-10-31T00:31:11.836Z,99.90
2022-10-31T00:33:41.057Z,99.90
2022-10-31T00:36:12.223Z,99.90
2022-10-31T00:38:39.940Z,99.90
2022-10-31T00:41:08.971Z,99.90
2022-10-31T00:43:36.646Z,99.90
2022-10-31T00:46:04.370Z,99.90
2022-10-31T00:48:32.539Z,99.90
2022-10-31T00:51:00.524Z,99.90
2022-10-31T00:53:28.241Z,99.90
2022-10-31T00:55:55.908Z,99.90
2022-10-31T00:58:25.000Z,99.90
2022-10-31T01:00:56.261Z,99.90
2022-10-31T01:03:25.696Z,99.90
2022-10-31T01:06:01.135Z,99.90
2022-10-31T01:08:29.138Z,99.90
2022-10-31T01:11:09.712Z,99.90
2022-10-31T01:13:39.053Z,99.90
2022-10-31T01:16:08.975Z,99.90
2022-10-31T01:18:37.391Z,99.90
2022-10-31T01:21:07.679Z,99.90
2022-10-31T01:23:36.044Z,99.90
2022-10-31T01:26:06.365Z,99.90
2022-10-31T01:28:34.230Z,99.90
2022-10-31T01:31:08.422Z,99.90
2022-10-31T01:33:37.218Z,99.90
2022-10-31T01:36:14.507Z,99.90
2022-10-31T01:38:42.219Z,99.90
2022-10-31T01:41:11.583Z,99.90
2022-10-31T01:43:51.475Z,99.90
2022-10-31T01:46:25.355Z,99.90
2022-10-31T01:48:54.265Z,99.90
2022-10-31T01:51:25.294Z,99.90
2022-10-31T01:53:55.734Z,99.90
2022-10-31T01:56:24.067Z,99.90
2022-10-31T01:58:51.917Z,99.90
2022-10-31T02:01:21.602Z,99.90
2022-10-31T02:03:50.030Z,99.90
2022-10-31T02:06:29.122Z,99.90
2022-10-31T02:08:59.340Z,99.90
2022-10-31T02:11:29.567Z,99.90
2022-10-31T02:13:57.702Z,99.90
2022-10-31T02:16:26.834Z,99.90
2022-10-31T02:18:54.798Z,99.90
2022-10-31T02:21:31.866Z,99.90
2022-10-31T02:24:40.966Z,99.90
2022-10-31T02:27:22.878Z,99.90
2022-10-31T02:30:06.969Z,99.90
2022-10-31T02:32:56.095Z,99.90
2022-10-31T02:35:37.932Z,99.90
2022-10-31T02:38:15.034Z,99.90
2022-10-31T02:40:52.884Z,99.90
2022-10-31T02:43:23.426Z,99.90
2022-10-31T02:45:55.039Z,99.90
2022-10-31T02:48:29.850Z,99.90
2022-10-31T02:51:01.039Z,99.90
2022-10-31T02:53:33.238Z,99.90
2022-10-31T02:56:03.258Z,99.90
2022-10-31T02:58:34.988Z,99.90
2022-10-31T03:01:50.011Z,99.90
2022-10-31T03:04:38.594Z,99.90
2022-10-31T03:07:13.049Z,99.90
2022-10-31T03:09:51.288Z,99.90
2022-10-31T03:12:28.487Z,99.90
2022-10-31T03:15:06.827Z,99.90
2022-10-31T03:17:39.349Z,99.90
2022-10-31T03:20:12.536Z,99.90
2022-10-31T03:22:42.546Z,99.90
2022-10-31T03:25:11.503Z,99.90
2022-10-31T03:27:41.047Z,99.90
2022-10-31T03:30:10.288Z,99.90
2022-10-31T03:32:43.926Z,99.90
2022-10-31T03:35:17.390Z,99.90
2022-10-31T03:37:46.066Z,99.90
2022-10-31T03:40:18.319Z,99.90
2022-10-31T03:42:53.614Z,99.90
2022-10-31T03:45:25.580Z,99.90
2022-10-31T03:47:54.742Z,99.90
2022-10-31T03:50:25.964Z,99.90
2022-10-31T03:52:59.138Z,99.90
2022-10-31T03:55:32.431Z,99.90
2022-10-31T03:58:04.429Z,99.90
2022-10-31T04:00:35.213Z,99.90
2022-10-31T04:03:07.556Z,99.90
2022-10-31T04:05:37.398Z,99.90
2022-10-31T04:08:10.032Z,99.90
2022-10-31T04:10:40.190Z,99.90
2022-10-31T04:13:10.692Z,99.90
2022-10-31T04:15:40.199Z,99.90
2022-10-31T04:18:08.215Z,99.90
2022-10-31T04:20:39.193Z,99.90
2022-10-31T04:23:11.010Z,99.90
2022-10-31T04:25:41.406Z,99.90
2022-10-31T04:28:09.178Z,99.90
2022-10-31T04:30:36.919Z,99.90
2022-10-31T04:33:04.755Z,99.90
2022-10-31T04:35:32.499Z,99.90
2022-10-31T04:38:01.596Z,99.90
2022-10-31T04:40:29.296Z,99.90
2022-10-31T04:42:57.287Z,99.90
2022-10-31T04:45:25.117Z,99.90
2022-10-31T04:47:52.806Z,99.90
2022-10-31T04:50:20.478Z,99.90
2022-10-31T04:52:48.423Z,99.90
2022-10-31T04:55:17.723Z,99.90
2022-10-31T04:57:47.077Z,99.90
2022-10-31T05:00:17.141Z,99.90
2022-10-31T05:02:45.930Z,99.90
2022-10-31T05:05:13.909Z,99.90
2022-10-31T05:07:42.720Z,99.90
2022-10-31T05:10:11.731Z,99.90
2022-10-31T05:12:48.652Z,99.90
2022-10-31T05:15:16.868Z,99.90
2022-10-31T05:17:45.256Z,99.90
2022-10-31T05:20:13.759Z,99.90
2022-10-31T05:22:44.483Z,99.90
2022-10-31T05:25:12.518Z,99.90
2022-10-31T05:27:42.590Z,99.90
2022-10-31T05:30:11.530Z,99.90
2022-10-31T05:32:40.225Z,99.90
2022-10-31T05:35:09.968Z,99.90
2022-10-31T05:37:38.128Z,99.90
2022-10-31T05:40:08.589Z,99.90
2022-10-31T05:42:36.600Z,99.90
2022-10-31T05:45:06.619Z,99.90
2022-10-31T05:47:34.346Z,99.90
2022-10-31T05:50:02.067Z,99.90
2022-10-31T05:52:29.783Z,99.90
2022-10-31T05:54:57.483Z,99.90
2022-10-31T05:57:25.368Z,99.90
2022-10-31T05:59:55.118Z,99.90
2022-10-31T06:02:24.413Z,99.90
2022-10-31T06:04:52.187Z,99.90
2022-10-31T06:07:20.173Z,99.90
2022-10-31T06:09:47.870Z,99.90
2022-10-31T06:12:15.555Z,99.90
2022-10-31T06:14:43.271Z,99.90
2022-10-31T06:17:11.030Z,99.90
2022-10-31T06:19:40.130Z,99.90
2022-10-31T06:22:07.869Z,99.90
2022-10-31T06:24:35.877Z,99.90
2022-10-31T06:27:03.649Z,99.90
2022-10-31T06:29:31.541Z,99.90
2022-10-31T06:31:59.245Z,99.90
2022-10-31T06:34:26.915Z,99.90
2022-10-31T06:36:55.976Z,99.90
2022-10-31T06:39:23.651Z,99.90
2022-10-31T06:41:51.333Z,99.90
2022-10-31T06:44:19.008Z,99.90
2022-10-31T06:46:48.226Z,99.90
2022-10-31T06:49:16.484Z,99.90
2022-10-31T06:51:44.455Z,99.90
2022-10-31T06:54:13.511Z,99.90
2022-10-31T06:56:41.199Z,99.90
2022-10-31T06:59:08.996Z,99.90
2022-10-31T07:01:36.755Z,99.90
2022-10-31T07:04:04.694Z,99.90
2022-10-31T07:06:32.436Z,99.90
2022-10-31T07:09:00.142Z,99.90
2022-10-31T07:11:29.253Z,99.90
2022-10-31T07:13:56.954Z,99.90
2022-10-31T07:16:24.786Z,99.90
2022-10-31T07:18:52.517Z,99.90
2022-10-31T07:21:20.338Z,99.90
2022-10-31T07:23:49.889Z,99.90
2022-10-31T07:26:17.734Z,99.90
2022-10-31T07:28:48.074Z,99.90
2022-10-31T07:31:15.742Z,99.90
2022-10-31T07:33:43.429Z,99.90
2022-10-31T07:36:11.116Z,99.90
2022-10-31T07:38:38.821Z,99.90
2022-10-31T07:41:06.831Z,99.90
2022-10-31T07:43:34.547Z,99.90
2022-10-31T07:46:03.573Z,97.00
2022-10-31T07:48:31.318Z,93.70
2022-10-31T07:50:59.008Z,90.50
2022-10-31T07:53:26.681Z,83.80
2022-10-31T07:55:54.370Z,79.20
2022-10-31T07:58:22.137Z,77.20
2022-10-31T08:00:49.994Z,73.00
2022-10-31T08:03:20.573Z,69.20
2022-10-31T08:05:48.431Z,67.50
2022-10-31T08:08:17.346Z,66.00
2022-10-31T08:10:45.302Z,64.40
2022-10-31T08:13:14.784Z,62.30
2022-10-31T08:15:44.006Z,61.90
2022-10-31T08:18:14.830Z,63.30
2022-10-31T08:20:45.201Z,63.40
2022-10-31T08:23:14.207Z,63.00
2022-10-31T08:25:42.789Z,63.00
2022-10-31T08:28:12.022Z,62.00
2022-10-31T08:30:40.687Z,59.70
2022-10-31T08:33:12.456Z,59.40
2022-10-31T08:35:40.452Z,59.60
2022-10-31T08:38:11.742Z,59.80
2022-10-31T08:40:41.585Z,60.90
2022-10-31T08:43:13.568Z,61.40
2022-10-31T08:45:41.626Z,61.70
2022-10-31T08:48:12.442Z,60.80
2022-10-31T08:50:41.053Z,60.30
2022-10-31T08:53:12.806Z,60.50
2022-10-31T08:55:41.604Z,60.90
2022-10-31T08:58:12.799Z,60.80
2022-10-31T09:00:40.887Z,61.20
2022-10-31T09:03:12.115Z,62.70
2022-10-31T09:05:40.095Z,63.30
2022-10-31T09:08:14.818Z,63.60
2022-10-31T09:10:46.129Z,63.90
2022-10-31T09:13:16.054Z,63.50
2022-10-31T09:15:45.774Z,63.10
2022-10-31T09:18:14.683Z,63.50
2022-10-31T09:20:44.061Z,63.30
2022-10-31T09:23:13.297Z,63.20
2022-10-31T09:25:44.007Z,63.20
2022-10-31T09:28:18.832Z,63.00
2022-10-31T09:30:48.851Z,63.40
2022-10-31T09:33:17.174Z,63.70
2022-10-31T09:35:44.953Z,64.20
2022-10-31T09:38:15.492Z,64.50
2022-10-31T09:40:45.595Z,65.50
2022-10-31T09:43:25.843Z,64.10
2022-10-31T09:46:02.788Z,64.80
2022-10-31T09:48:42.026Z,65.20
2022-10-31T09:51:12.730Z,65.30
2022-10-31T09:53:44.359Z,65.30
2022-10-31T09:56:15.849Z,64.70
2022-10-31T09:58:48.212Z,64.70
2022-10-31T10:01:34.215Z,66.10
2022-10-31T10:04:07.115Z,66.30
2022-10-31T10:06:37.805Z,67.40
2022-10-31T10:09:05.483Z,67.90
2022-10-31T10:11:45.247Z,68.70
2022-10-31T10:14:37.634Z,70.10
2022-10-31T10:17:20.817Z,71.60
2022-10-31T10:20:12.745Z,73.20
2022-10-31T10:22:48.118Z,73.80
2022-10-31T10:25:24.147Z,74.10
2022-10-31T10:28:06.891Z,73.10
2022-10-31T10:30:41.985Z,73.60
2022-10-31T10:33:14.223Z,74.00
2022-10-31T10:35:45.809Z,74.20
2022-10-31T10:38:21.102Z,73.50
2022-10-31T10:40:49.601Z,71.80
2022-10-31T10:43:24.608Z,70.20
2022-10-31T10:46:32.638Z,69.60
2022-10-31T10:49:07.910Z,67.10
2022-10-31T10:54:41.818Z,67.10
2022-10-31T10:57:21.893Z,69.10
2022-10-31T10:59:50.026Z,69.50
2022-10-31T11:02:21.642Z,69.60
2022-10-31T11:04:52.847Z,70.10
2022-10-31T11:07:20.736Z,69.70
2022-10-31T11:09:48.560Z,69.80
2022-10-31T11:12:23.623Z,69.50
2022-10-31T11:14:56.754Z,70.30
2022-10-31T11:17:33.119Z,70.60
2022-10-31T11:20:06.427Z,71.30
2022-10-31T11:22:34.222Z,72.20
2022-10-31T11:25:01.958Z,72.50
2022-10-31T11:27:29.845Z,72.80
2022-10-31T11:30:06.952Z,72.20
2022-10-31T11:32:36.387Z,73.50
2022-10-31T11:35:11.320Z,74.50
2022-10-31T11:37:44.680Z,75.20
2022-10-31T11:40:19.929Z,75.60
2022-10-31T11:42:48.603Z,76.10
2022-10-31T11:45:18.366Z,76.00
2022-10-31T11:47:52.949Z,76.50
2022-10-31T11:50:26.802Z,77.30
2022-10-31T11:55:34.542Z,78.30
2022-10-31T11:58:02.603Z,78.30
2022-10-31T12:00:32.376Z,76.60
2022-10-31T12:03:15.873Z,77.30
2022-10-31T12:05:46.334Z,77.10
2022-10-31T12:08:15.407Z,78.60
2022-10-31T12:10:53.933Z,79.90
2022-10-31T12:13:35.179Z,79.60
2022-10-31T12:16:09.370Z,81.30
2022-10-31T12:18:49.562Z,81.10
2022-10-31T12:21:29.839Z,82.20
2022-10-31T12:24:08.554Z,83.80
2022-10-31T12:26:44.484Z,85.00
2022-10-31T12:29:30.202Z,87.10
2022-10-31T12:32:11.223Z,88.00
2022-10-31T12:35:15.754Z,89.60
2022-10-31T12:37:55.947Z,89.80
2022-10-31T12:40:43.024Z,90.00
2022-10-31T12:43:24.391Z,90.40
2022-10-31T12:45:56.278Z,90.30
2022-10-31T12:48:46.876Z,91.20
2022-10-31T12:51:24.433Z,91.60
2022-10-31T12:54:07.265Z,91.20
2022-10-31T12:56:44.825Z,93.00
2022-10-31T12:59:19.050Z,94.60
2022-10-31T13:01:51.206Z,95.50
2022-10-31T13:04:23.943Z,96.40
2022-10-31T13:07:01.622Z,97.10
2022-10-31T13:09:34.790Z,97.00
2022-10-31T13:12:09.019Z,96.70
2022-10-31T13:14:41.065Z,96.50
2022-10-31T13:17:11.844Z,96.20
2022-10-31T13:19:43.218Z,96.70
2022-10-31T13:22:18.257Z,97.20
2022-10-31T13:24:54.526Z,98.00
2022-10-31T13:27:24.997Z,97.90
2022-10-31T13:30:02.642Z,97.80
2022-10-31T13:32:39.452Z,97.80
2022-10-31T13:35:14.777Z,98.00
2022-10-31T13:37:54.647Z,98.10
2022-10-31T13:40:39.268Z,98.90
2022-10-31T13:43:13.678Z,98.80
2022-10-31T13:45:51.616Z,98.80
2022-10-31T13:48:37.478Z,96.80
2022-10-31T13:51:08.359Z,97.00
2022-10-31T13:54:00.394Z,94.40
2022-10-31T13:56:30.747Z,92.20
2022-10-31T13:59:15.845Z,88.20
2022-10-31T14:01:50.539Z,84.60
2022-10-31T14:04:25.270Z,86.50
2022-10-31T14:07:00.648Z,88.40
2022-10-31T14:09:35.431Z,90.00
2022-10-31T14:12:09.843Z,90.50
2022-10-31T14:14:48.047Z,91.10
2022-10-31T14:17:24.868Z,91.90
2022-10-31T14:20:03.819Z,92.40
2022-10-31T14:22:32.879Z,92.40
2022-10-31T14:25:02.006Z,93.10
2022-10-31T14:27:48.065Z,93.20
2022-10-31T14:30:20.226Z,93.40
2022-10-31T14:32:53.983Z,93.40
2022-10-31T14:35:26.488Z,93.90
2022-10-31T14:38:14.317Z,94.00
2022-10-31T14:40:54.134Z,93.80
2022-10-31T14:43:40.116Z,94.30
2022-10-31T14:46:14.226Z,95.10
2022-10-31T14:49:08.909Z,95.90
2022-10-31T14:51:42.503Z,96.50
2022-10-31T14:54:14.786Z,97.50
2022-10-31T14:56:50.399Z,99.70
2022-10-31T14:59:22.878Z,99.90
2022-10-31T15:01:57.894Z,99.90
2022-10-31T15:04:27.974Z,99.90
2022-10-31T15:07:01.361Z,99.90
2022-10-31T15:09:30.803Z,99.90
2022-10-31T15:12:00.590Z,99.90
2022-10-31T15:14:30.092Z,99.90
2022-10-31T15:16:59.879Z,99.90
2022-10-31T15:19:30.322Z,99.90
2022-10-31T15:21:59.494Z,99.90
2022-10-31T15:24:34.480Z,99.90
2022-10-31T15:27:05.461Z,99.90
2022-10-31T15:29:33.517Z,99.90
2022-10-31T15:32:03.641Z,99.90
2022-10-31T15:34:37.660Z,99.90
2022-10-31T15:37:05.626Z,99.90
2022-10-31T15:39:34.062Z,99.90
2022-10-31T15:42:03.599Z,99.90
2022-10-31T15:44:35.382Z,99.90
2022-10-31T15:47:06.163Z,99.90
2022-10-31T15:49:37.869Z,99.90
2022-10-31T15:52:14.327Z,99.90
2022-10-31T15:54:49.440Z,99.90
2022-10-31T15:57:18.848Z,99.90
2022-10-31T15:59:49.299Z,99.90
2022-10-31T16:02:21.380Z,99.90
2022-10-31T16:04:55.397Z,99.90
2022-10-31T16:07:24.037Z,99.90
2022-10-31T16:09:56.859Z,99.90
2022-10-31T16:12:28.474Z,99.90
2022-10-31T16:14:57.225Z,99.90
2022-10-31T16:17:28.385Z,99.90
2022-10-31T16:19:59.754Z,99.90
2022-10-31T16:22:30.418Z,99.90
2022-10-31T16:25:03.964Z,99.90
2022-10-31T16:27:35.326Z,99.90
2022-10-31T16:30:05.631Z,99.90
2022-10-31T16:32:36.066Z,99.90
2022-10-31T16:35:20.967Z,99.90
2022-10-31T16:37:48.637Z,99.90
2022-10-31T16:40:17.382Z,99.90
2022-10-31T16:42:48.049Z,99.90
2022-10-31T16:45:18.922Z,99.90
2022-10-31T16:47:46.962Z,99.90
2022-10-31T16:50:17.606Z,99.90
2022-10-31T16:53:01.047Z,99.90
2022-10-31T16:55:35.834Z,99.90
2022-10-31T16:58:05.006Z,99.90
2022-10-31T17:00:32.721Z,99.90
2022-10-31T17:03:00.671Z,99.90
2022-10-31T17:05:30.127Z,99.90
2022-10-31T17:07:58.103Z,99.90
2022-10-31T17:10:27.128Z,99.90
2022-10-31T17:12:57.317Z,99.90
2022-10-31T17:15:28.067Z,99.90
2022-10-31T17:17:56.422Z,99.90
2022-10-31T17:20:26.021Z,99.90
2022-10-31T17:22:54.514Z,99.90
2022-10-31T17:25:23.853Z,99.90
2022-10-31T17:27:52.197Z,99.90
2022-10-31T17:30:21.888Z,99.90
2022-10-31T17:32:51.974Z,99.90
2022-10-31T17:35:20.584Z,99.90
2022-10-31T17:37:49.037Z,99.90
2022-10-31T17:40:18.716Z,99.90
2022-10-31T17:42:50.845Z,99.90
2022-10-31T17:45:19.062Z,99.90
2022-10-31T17:47:49.638Z,99.90
2022-10-31T17:50:17.933Z,99.90
2022-10-31T17:52:45.647Z,99.90
2022-10-31T17:55:13.821Z,99.90
2022-10-31T17:57:41.781Z,99.90
2022-10-31T18:00:12.817Z,99.90
2022-10-31T18:02:40.764Z,99.90
2022-10-31T18:05:10.670Z,99.90
2022-10-31T18:07:38.361Z,99.90
2022-10-31T18:10:07.274Z,99.90
2022-10-31T18:12:36.991Z,99.90
2022-10-31T18:15:05.612Z,99.90
2022-10-31T18:17:35.811Z,99.90
2022-10-31T18:20:06.745Z,99.90
2022-10-31T18:22:35.870Z,99.90
2022-10-31T18:25:04.114Z,99.90
2022-10-31T18:27:32.226Z,99.90
2022-10-31T18:29:59.929Z,99.90
2022-10-31T18:32:27.691Z,99.90
2022-10-31T18:34:55.469Z,99.90
2022-10-31T18:37:23.164Z,99.90
2022-10-31T18:39:52.212Z,99.90
2022-10-31T18:42:19.912Z,99.90
2022-10-31T18:44:47.707Z,99.90
2022-10-31T18:47:15.441Z,99.90
2022-10-31T18:49:43.243Z,99.90
2022-10-31T18:52:10.947Z,99.90
2022-10-31T18:54:38.642Z,99.90
2022-10-31T18:57:07.710Z,99.90
2022-10-31T18:59:35.599Z,99.90
2022-10-31T19:02:03.547Z,99.90
2022-10-31T19:04:31.426Z,99.90
2022-10-31T19:06:59.674Z,99.90
2022-10-31T19:09:29.422Z,99.90
2022-10-31T19:11:57.157Z,99.90
2022-10-31T19:14:26.203Z,99.90
2022-10-31T19:16:55.211Z,99.90
2022-10-31T19:19:24.136Z,99.90
2022-10-31T19:21:51.852Z,99.90
2022-10-31T19:24:19.806Z,99.90
2022-10-31T19:26:47.746Z,99.90
2022-10-31T19:29:15.595Z,99.90
2022-10-31T19:31:44.689Z,99.90
2022-10-31T19:34:12.597Z,99.90
2022-10-31T19:36:40.422Z,99.90
2022-10-31T19:39:08.198Z,99.90
2022-10-31T19:41:35.914Z,99.90
2022-10-31T19:44:03.630Z,99.90
2022-10-31T19:46:52.778Z,99.90
2022-10-31T19:49:20.559Z,99.90
2022-10-31T19:51:48.305Z,99.90
2022-10-31T19:54:16.357Z,99.90
2022-10-31T19:56:44.189Z,99.90
2022-10-31T19:59:11.947Z,99.90
2022-10-31T20:01:39.720Z,99.90
2022-10-31T20:04:07.907Z,99.90
2022-10-31T20:06:39.333Z,99.90
2022-10-31T20:09:09.562Z,99.90
2022-10-31T20:11:38.779Z,99.90
2022-10-31T20:14:07.526Z,99.90
2022-10-31T20:16:35.406Z,99.90
2022-10-31T20:19:03.206Z,99.90
2022-10-31T20:21:32.851Z,99.90
2022-10-31T20:24:04.462Z,99.90
2022-10-31T20:26:33.837Z,99.90
2022-10-31T20:29:03.055Z,99.90
2022-10-31T20:31:33.117Z,99.90
2022-10-31T20:34:01.259Z,99.90
2022-10-31T20:36:30.727Z,99.90
2022-10-31T20:39:00.130Z,99.90
2022-10-31T20:41:29.212Z,99.90
2022-10-31T20:43:57.136Z,99.90
2022-10-31T20:46:27.106Z,99.90
2022-10-31T20:48:55.195Z,99.90
2022-10-31T20:51:25.367Z,99.90
2022-10-31T20:53:54.978Z,99.90
2022-10-31T20:56:25.041Z,99.90
2022-10-31T20:58:56.370Z,99.90
2022-10-31T21:01:25.992Z,99.90
2022-10-31T21:03:54.615Z,99.90
2022-10-31T21:06:23.921Z,99.90
2022-10-31T21:08:53.654Z,99.90
2022-10-31T21:11:23.547Z,99.90
2022-10-31T21:13:52.500Z,99.90
2022-10-31T21:16:23.695Z,99.90
2022-10-31T21:18:52.173Z,99.90
2022-10-31T21:21:23.338Z,99.90
2022-10-31T21:23:55.685Z,99.90
2022-10-31T21:26:26.122Z,99.90
2022-10-31T21:28:55.924Z,99.90
2022-10-31T21:31:28.116Z,99.90
2022-10-31T21:33:56.283Z,99.90
2022-10-31T21:36:24.252Z,99.90
2022-10-31T21:38:52.475Z,99.90
2022-10-31T21:41:21.238Z,99.90
2022-10-31T21:43:51.078Z,99.90
2022-10-31T21:46:20.158Z,99.90
2022-10-31T21:48:49.771Z,99.90
2022-10-31T21:51:21.009Z,99.90
2022-10-31T21:54:06.744Z,99.90
2022-10-31T21:56:34.861Z,99.90
2022-10-31T21:59:02.970Z,99.90
2022-10-31T22:01:31.394Z,99.90
2022-10-31T22:04:00.952Z,99.90
2022-10-31T22:06:30.789Z,99.90
2022-10-31T22:09:00.224Z,99.90
2022-10-31T22:11:28.879Z,99.90
2022-10-31T22:13:57.471Z,99.90
2022-10-31T22:16:26.683Z,99.90
2022-10-31T22:18:55.961Z,99.90
2022-10-31T22:21:27.402Z,99.90
2022-10-31T22:23:57.478Z,99.90
2022-10-31T22:26:27.811Z,99.90
2022-10-31T22:28:59.255Z,99.90
2022-10-31T22:31:27.926Z,99.90
2022-10-31T22:33:56.789Z,99.90
2022-10-31T22:36:27.933Z,99.90
2022-10-31T22:38:56.103Z,99.90
2022-10-31T22:41:26.141Z,99.90
2022-10-31T22:43:54.463Z,99.90
2022-10-31T22:46:23.757Z,99.90
2022-10-31T22:48:52.952Z,99.90
2022-10-31T22:51:24.227Z,99.90
2022-10-31T22:53:56.409Z,99.90
2022-10-31T22:56:26.011Z,99.90
2022-10-31T22:58:54.242Z,99.90
2022-10-31T23:01:24.006Z,99.90
2022-10-31T23:03:52.342Z,99.90
2022-10-31T23:06:21.890Z,99.90
2022-10-31T23:08:50.402Z,99.90
2022-10-31T23:11:22.475Z,99.90
2022-10-31T23:14:09.847Z,99.90
2022-10-31T23:16:39.066Z,99.90
2022-10-31T23:19:08.050Z,99.90
2022-10-31T23:21:55.796Z,99.90
2022-10-31T23:24:25.498Z,99.90
2022-10-31T23:27:10.526Z,99.90
2022-10-31T23:29:43.169Z,99.90
2022-10-31T23:32:16.278Z,99.90
2022-10-31T23:34:44.831Z,99.90
2022-10-31T23:37:12.969Z,99.90
2022-10-31T23:39:41.143Z,99.90
2022-10-31T23:42:10.500Z,99.90
2022-10-31T23:44:38.365Z,99.90
2022-10-31T23:47:06.934Z,99.90
2022-10-31T23:49:34.993Z,99.90
2022-10-31T23:52:03.446Z,99.90
2022-10-31T23:54:31.826Z,99.90
2022-10-31T23:56:59.836Z,99.90
2022-10-31T23:59:29.876Z,99.90
